createdAt,value
2022-12-15T00:00:48.693Z,85.34
2022-12-15T00:03:34.052Z,85.25
2022-12-15T00:06:19.399Z,85.39
2022-12-15T00:09:04.280Z,85.57
2022-12-15T00:11:49.597Z,85.65
2022-12-15T00:14:34.343Z,85.78
2022-12-15T00:17:19.197Z,85.66
2022-12-15T00:20:04.333Z,85.72
2022-12-15T00:22:49.161Z,85.90
2022-12-15T00:25:34.640Z,86.01
2022-12-15T00:28:19.720Z,85.85
2022-12-15T00:31:05.236Z,86.03
2022-12-15T00:33:50.214Z,86.10
2022-12-15T00:36:34.940Z,86.18
2022-12-15T00:39:03.943Z,86.17
2022-12-15T00:41:30.699Z,86.11
2022-12-15T00:43:57.274Z,86.22
2022-12-15T00:46:42.213Z,86.29
2022-12-15T00:49:28.864Z,86.14
2022-12-15T00:52:14.068Z,86.35
2022-12-15T00:54:59.391Z,86.34
2022-12-15T00:57:44.590Z,86.29
2022-12-15T01:00:30.167Z,86.38
2022-12-15T01:03:15.504Z,86.28
2022-12-15T01:06:00.584Z,86.44
2022-12-15T01:08:46.895Z,86.39
2022-12-15T01:11:31.742Z,86.68
2022-12-15T01:14:17.014Z,86.73
2022-12-15T01:17:01.960Z,86.68
2022-12-15T01:19:46.948Z,86.60
2022-12-15T01:22:16.053Z,86.54
2022-12-15T01:24:42.591Z,86.74
2022-12-15T01:27:09.019Z,86.92
2022-12-15T01:29:35.579Z,86.49
2022-12-15T01:32:02.149Z,86.66
2022-12-15T01:34:28.594Z,86.82
2022-12-15T01:36:55.006Z,86.84
2022-12-15T01:39:21.426Z,86.45
2022-12-15T01:41:47.933Z,86.72
2022-12-15T01:44:23.748Z,86.81
2022-12-15T01:46:55.041Z,86.78
2022-12-15T01:49:26.444Z,86.79
2022-12-15T01:51:58.352Z,86.68
2022-12-15T01:54:30.552Z,87.06
2022-12-15T01:57:03.007Z,87.01
2022-12-15T01:59:43.785Z,86.73
2022-12-15T02:02:12.544Z,86.96
2022-12-15T02:04:39.358Z,86.78
2022-12-15T02:07:05.823Z,87.08
2022-12-15T02:09:32.575Z,87.10
2022-12-15T02:12:08.032Z,87.22
2022-12-15T02:14:53.006Z,87.30
2022-12-15T02:17:28.099Z,87.30
2022-12-15T02:20:20.477Z,87.06
2022-12-15T02:23:05.447Z,87.45
2022-12-15T02:25:44.307Z,87.11
2022-12-15T02:28:16.979Z,87.60
2022-12-15T02:31:09.796Z,87.21
2022-12-15T02:33:43.781Z,87.80
2022-12-15T02:36:17.264Z,87.47
2022-12-15T02:38:45.140Z,87.42
2022-12-15T02:41:35.498Z,87.56
2022-12-15T02:44:19.792Z,87.73
2022-12-15T02:46:54.718Z,87.39
2022-12-15T02:49:33.342Z,87.48
2022-12-15T02:52:36.273Z,87.60
2022-12-15T02:55:30.736Z,87.50
2022-12-15T02:58:18.920Z,87.71
2022-12-15T03:00:54.542Z,87.83
2022-12-15T03:03:22.715Z,87.62
2022-12-15T03:05:57.329Z,87.84
2022-12-15T03:08:24.006Z,88.02
2022-12-15T03:10:53.078Z,87.89
2022-12-15T03:13:19.475Z,88.10
2022-12-15T03:15:46.174Z,88.26
2022-12-15T03:18:12.971Z,88.01
2022-12-15T03:20:39.309Z,88.17
2022-12-15T03:23:05.657Z,88.34
2022-12-15T03:25:32.449Z,88.14
2022-12-15T03:27:59.024Z,88.20
2022-12-15T03:30:25.476Z,88.25
2022-12-15T03:32:51.918Z,88.19
2022-12-15T03:35:18.682Z,88.37
2022-12-15T03:37:45.113Z,88.21
2022-12-15T03:40:13.831Z,88.71
2022-12-15T03:42:49.450Z,88.60
2022-12-15T03:45:24.257Z,88.55
2022-12-15T03:47:51.455Z,88.87
2022-12-15T03:50:26.942Z,88.84
2022-12-15T03:52:56.148Z,88.85
2022-12-15T03:55:23.181Z,89.29
2022-12-15T03:57:49.883Z,89.33
2022-12-15T04:00:18.673Z,89.21
2022-12-15T04:02:46.727Z,89.44
2022-12-15T04:05:26.091Z,88.91
2022-12-15T04:07:53.858Z,88.90
2022-12-15T04:10:20.609Z,88.69
2022-12-15T04:12:47.196Z,88.73
2022-12-15T04:15:13.758Z,88.81
2022-12-15T04:17:41.637Z,88.66
2022-12-15T04:20:11.660Z,89.24
2022-12-15T04:22:43.712Z,88.98
2022-12-15T04:25:34.605Z,89.14
2022-12-15T04:28:19.622Z,89.12
2022-12-15T04:31:14.678Z,89.39
2022-12-15T04:34:03.538Z,89.45
2022-12-15T04:36:49.906Z,89.17
2022-12-15T04:39:35.274Z,89.34
2022-12-15T04:42:21.312Z,89.24
2022-12-15T04:45:08.487Z,88.66
2022-12-15T04:47:53.739Z,88.87
2022-12-15T04:50:38.805Z,89.00
2022-12-15T04:53:33.139Z,88.70
2022-12-15T04:56:19.060Z,88.73
2022-12-15T04:59:04.825Z,88.82
2022-12-15T05:01:50.154Z,88.78
2022-12-15T05:04:35.235Z,88.77
2022-12-15T05:07:20.347Z,88.65
2022-12-15T05:10:08.307Z,89.03
2022-12-15T05:12:57.685Z,89.20
2022-12-15T05:15:42.413Z,88.98
2022-12-15T05:18:27.361Z,89.09
2022-12-15T05:21:12.173Z,89.02
2022-12-15T05:23:56.847Z,88.94
2022-12-15T05:26:41.734Z,89.11
2022-12-15T05:29:26.657Z,89.29
2022-12-15T05:31:54.692Z,89.24
2022-12-15T05:34:23.021Z,89.14
2022-12-15T05:36:50.542Z,89.12
2022-12-15T05:39:17.082Z,89.33
2022-12-15T05:41:43.613Z,89.35
2022-12-15T05:44:10.319Z,89.42
2022-12-15T05:46:37.235Z,89.41
2022-12-15T05:49:07.922Z,89.33
2022-12-15T05:51:38.415Z,89.47
2022-12-15T05:54:05.139Z,89.45
2022-12-15T05:56:31.594Z,89.47
2022-12-15T05:58:57.998Z,89.59
2022-12-15T06:01:25.365Z,89.62
2022-12-15T06:03:52.334Z,89.72
2022-12-15T06:06:19.739Z,89.75
2022-12-15T06:08:46.266Z,90.13
2022-12-15T06:11:18.407Z,90.19
2022-12-15T06:13:44.896Z,90.24
2022-12-15T06:16:16.257Z,90.31
2022-12-15T06:18:50.219Z,90.46
2022-12-15T06:21:19.423Z,89.92
2022-12-15T06:23:46.740Z,90.54
2022-12-15T06:26:17.272Z,90.55
2022-12-15T06:28:43.967Z,90.11
2022-12-15T06:31:12.686Z,90.22
2022-12-15T06:33:39.272Z,90.22
2022-12-15T06:36:08.999Z,90.26
2022-12-15T06:38:36.313Z,90.23
2022-12-15T06:41:04.739Z,89.91
2022-12-15T06:43:33.260Z,89.94
2022-12-15T06:46:01.148Z,89.99
2022-12-15T06:48:27.839Z,89.91
2022-12-15T06:50:54.600Z,89.76
2022-12-15T06:53:24.050Z,89.79
2022-12-15T06:55:50.990Z,90.10
2022-12-15T06:58:18.254Z,89.61
2022-12-15T07:00:46.272Z,89.85
2022-12-15T07:03:16.201Z,89.73
2022-12-15T07:05:44.963Z,89.80
2022-12-15T07:08:12.839Z,89.43
2022-12-15T07:10:44.026Z,89.49
2022-12-15T07:13:11.932Z,89.52
2022-12-15T07:15:38.905Z,89.58
2022-12-15T07:18:05.984Z,89.35
2022-12-15T07:20:33.360Z,89.60
2022-12-15T07:23:00.623Z,89.46
2022-12-15T07:25:26.957Z,89.35
2022-12-15T07:27:53.355Z,89.70
2022-12-15T07:30:19.783Z,89.41
2022-12-15T07:32:46.604Z,89.72
2022-12-15T07:35:16.966Z,89.89
2022-12-15T07:37:43.511Z,89.63
2022-12-15T07:40:10.136Z,89.57
2022-12-15T07:42:36.519Z,89.96
2022-12-15T07:45:05.177Z,89.86
2022-12-15T07:47:32.493Z,89.60
2022-12-15T07:49:58.963Z,89.80
2022-12-15T07:52:26.137Z,89.51
2022-12-15T07:54:52.504Z,89.76
2022-12-15T07:57:18.926Z,89.82
2022-12-15T07:59:45.404Z,89.81
2022-12-15T08:02:13.169Z,89.77
2022-12-15T08:04:40.476Z,89.66
2022-12-15T08:07:07.991Z,89.49
2022-12-15T08:09:34.607Z,89.51
2022-12-15T08:12:01.044Z,89.66
2022-12-15T08:14:29.173Z,89.54
2022-12-15T08:16:55.693Z,89.84
2022-12-15T08:19:22.158Z,89.68
2022-12-15T08:21:48.740Z,90.07
2022-12-15T08:24:15.730Z,90.28
2022-12-15T08:26:43.856Z,90.34
2022-12-15T08:31:59.316Z,90.73
2022-12-15T08:34:25.808Z,91.03
2022-12-15T08:36:52.198Z,90.99
2022-12-15T08:39:18.642Z,90.86
2022-12-15T08:41:45.237Z,90.97
2022-12-15T08:44:11.867Z,91.19
2022-12-15T08:46:38.395Z,91.05
2022-12-15T08:49:04.780Z,90.77
2022-12-15T08:51:32.796Z,90.84
2022-12-15T08:54:00.543Z,91.25
2022-12-15T08:56:28.666Z,90.98
2022-12-15T08:58:57.726Z,91.23
2022-12-15T09:01:26.480Z,91.15
2022-12-15T09:03:54.834Z,91.44
2022-12-15T09:06:28.319Z,91.87
2022-12-15T09:08:56.625Z,91.71
2022-12-15T09:11:24.297Z,91.50
2022-12-15T09:13:51.115Z,91.77
2022-12-15T09:16:19.829Z,92.03
2022-12-15T09:18:48.914Z,92.20
2022-12-15T09:21:16.756Z,92.10
2022-12-15T09:23:43.366Z,92.30
2022-12-15T09:26:12.434Z,92.42
2022-12-15T09:28:39.198Z,92.12
2022-12-15T09:31:13.736Z,92.63
2022-12-15T09:33:42.744Z,92.63
2022-12-15T09:36:11.115Z,92.92
2022-12-15T09:38:38.226Z,92.78
2022-12-15T09:41:13.569Z,92.35
2022-12-15T09:43:48.264Z,92.90
2022-12-15T09:46:50.197Z,92.67
2022-12-15T09:49:48.213Z,92.32
2022-12-15T09:52:22.667Z,92.84
2022-12-15T09:54:49.349Z,92.07
2022-12-15T09:57:40.273Z,92.66
2022-12-15T10:00:11.232Z,91.92
2022-12-15T10:02:52.414Z,91.55
2022-12-15T10:06:07.198Z,91.40
2022-12-15T10:08:30.416Z,91.42
2022-12-15T10:11:23.199Z,90.99
2022-12-15T10:14:11.265Z,90.49
2022-12-15T10:17:13.129Z,90.82
2022-12-15T10:19:45.426Z,90.40
2022-12-15T10:22:22.875Z,90.02
2022-12-15T10:28:13.099Z,89.69
2022-12-15T10:31:00.597Z,89.30
2022-12-15T10:33:37.572Z,89.02
2022-12-15T10:36:12.369Z,89.25
2022-12-15T10:38:42.442Z,89.19
2022-12-15T10:41:11.992Z,88.84
2022-12-15T10:43:47.033Z,88.48
2022-12-15T10:46:22.333Z,88.24
2022-12-15T10:48:51.913Z,88.29
2022-12-15T10:51:20.068Z,87.93
2022-12-15T10:53:55.288Z,87.67
2022-12-15T10:56:33.618Z,87.09
2022-12-15T10:59:21.159Z,86.80
2022-12-15T11:01:47.658Z,86.69
2022-12-15T11:04:32.414Z,86.16
2022-12-15T11:07:01.296Z,86.20
2022-12-15T11:09:38.946Z,85.62
2022-12-15T11:12:42.713Z,85.21
2022-12-15T11:15:32.138Z,85.34
2022-12-15T11:18:10.674Z,85.35
2022-12-15T11:20:45.130Z,84.71
2022-12-15T11:23:48.797Z,84.45
2022-12-15T11:26:46.920Z,84.16
2022-12-15T11:29:38.945Z,83.50
2022-12-15T11:32:07.528Z,83.72
2022-12-15T11:34:41.838Z,84.06
2022-12-15T11:37:17.281Z,83.39
2022-12-15T11:40:19.816Z,83.53
2022-12-15T11:43:18.440Z,83.45
2022-12-15T11:46:09.908Z,82.88
2022-12-15T11:48:50.361Z,82.87
2022-12-15T11:51:35.270Z,82.60
2022-12-15T11:54:11.972Z,82.92
2022-12-15T11:56:47.093Z,81.99
2022-12-15T11:59:35.949Z,81.82
2022-12-15T12:02:24.906Z,81.98
2022-12-15T12:05:16.066Z,82.04
2022-12-15T12:07:49.462Z,82.21
2022-12-15T12:10:31.093Z,81.91
2022-12-15T12:13:12.159Z,82.43
2022-12-15T12:15:47.475Z,82.39
2022-12-15T12:18:23.215Z,82.44
2022-12-15T12:20:54.909Z,82.96
2022-12-15T12:23:36.527Z,81.99
2022-12-15T12:26:25.883Z,82.05
2022-12-15T12:29:06.569Z,82.09
2022-12-15T12:31:51.930Z,82.09
2022-12-15T12:34:37.420Z,82.24
2022-12-15T12:37:19.798Z,81.80
2022-12-15T12:39:48.121Z,82.15
2022-12-15T12:42:22.970Z,82.37
2022-12-15T12:44:49.386Z,82.14
2022-12-15T12:47:41.264Z,82.39
2022-12-15T12:50:17.257Z,82.42
2022-12-15T12:53:03.596Z,82.66
2022-12-15T12:55:41.687Z,82.73
2022-12-15T12:58:34.804Z,82.91
2022-12-15T13:01:10.390Z,82.78
2022-12-15T13:03:42.022Z,82.74
2022-12-15T13:06:40.613Z,82.46
2022-12-15T13:09:22.024Z,82.60
2022-12-15T13:11:48.917Z,82.74
2022-12-15T13:17:27.700Z,82.85
2022-12-15T13:20:00.464Z,83.15
2022-12-15T13:22:26.778Z,83.53
2022-12-15T13:24:56.192Z,83.72
2022-12-15T13:27:23.792Z,83.42
2022-12-15T13:30:14.139Z,83.57
2022-12-15T13:32:43.510Z,83.70
2022-12-15T13:35:12.654Z,83.98
2022-12-15T13:37:51.251Z,83.87
2022-12-15T13:40:33.639Z,84.45
2022-12-15T13:43:06.028Z,84.05
2022-12-15T13:45:48.595Z,84.22
2022-12-15T13:48:29.201Z,84.17
2022-12-15T13:50:58.011Z,84.36
2022-12-15T13:53:28.934Z,84.41
2022-12-15T13:56:14.783Z,84.35
2022-12-15T13:58:44.565Z,84.37
2022-12-15T14:04:16.197Z,84.77
2022-12-15T14:06:50.870Z,84.68
2022-12-15T14:09:22.443Z,84.87
2022-12-15T14:11:54.304Z,84.47
2022-12-15T14:14:28.269Z,84.89
2022-12-15T14:16:58.832Z,84.44
2022-12-15T14:19:25.968Z,85.03
2022-12-15T14:21:55.548Z,84.95
2022-12-15T14:24:40.173Z,85.25
2022-12-15T14:27:30.471Z,85.20
2022-12-15T14:30:23.317Z,85.10
2022-12-15T14:33:08.249Z,85.33
2022-12-15T14:35:44.633Z,85.62
2022-12-15T14:38:20.922Z,85.69
2022-12-15T14:40:51.104Z,85.77
2022-12-15T14:43:24.929Z,85.71
2022-12-15T14:45:56.288Z,85.84
2022-12-15T14:48:41.830Z,86.39
2022-12-15T14:51:19.720Z,86.18
2022-12-15T14:53:53.048Z,86.56
2022-12-15T14:56:25.739Z,86.63
2022-12-15T14:59:04.211Z,86.33
2022-12-15T15:03:05.769Z,84.92
2022-12-15T15:03:06.148Z,86.50
2022-12-15T15:03:13.041Z,82.85
2022-12-15T15:04:36.992Z,86.58
2022-12-15T15:07:06.688Z,87.03
2022-12-15T15:09:40.578Z,86.95
2022-12-15T15:12:14.120Z,86.88
2022-12-15T15:14:44.550Z,87.14
2022-12-15T15:17:14.465Z,86.91
2022-12-15T15:19:49.002Z,87.28
2022-12-15T15:22:30.736Z,87.39
2022-12-15T15:24:57.122Z,87.31
2022-12-15T15:27:38.153Z,87.78
2022-12-15T15:30:20.569Z,87.87
2022-12-15T15:33:07.922Z,87.89
2022-12-15T15:35:34.462Z,88.05
2022-12-15T15:38:11.274Z,87.98
2022-12-15T15:40:37.763Z,88.18
2022-12-15T15:43:14.049Z,87.88
2022-12-15T15:45:41.902Z,88.31
2022-12-15T15:48:17.327Z,88.09
2022-12-15T15:50:44.589Z,88.27
2022-12-15T15:53:17.597Z,88.37
2022-12-15T15:55:44.781Z,87.95
2022-12-15T15:58:12.891Z,88.31
2022-12-15T16:00:40.234Z,88.56
2022-12-15T16:03:07.180Z,88.93
2022-12-15T16:05:33.938Z,88.89
2022-12-15T16:08:01.491Z,89.25
2022-12-15T16:10:28.311Z,88.98
2022-12-15T16:12:56.939Z,89.54
2022-12-15T16:15:26.236Z,88.82
2022-12-15T16:17:53.564Z,89.37
2022-12-15T16:20:22.506Z,89.24
2022-12-15T16:22:55.350Z,88.63
2022-12-15T16:25:31.736Z,89.12
2022-12-15T16:28:03.356Z,88.93
2022-12-15T16:30:30.064Z,89.05
2022-12-15T16:32:56.481Z,89.00
2022-12-15T16:35:26.387Z,89.28
2022-12-15T16:37:52.996Z,88.61
2022-12-15T16:40:23.499Z,88.85
2022-12-15T16:42:54.351Z,88.72
2022-12-15T16:45:23.292Z,88.68
2022-12-15T16:47:49.815Z,88.91
2022-12-15T16:50:38.185Z,88.73
2022-12-15T16:53:05.544Z,89.14
2022-12-15T16:55:39.811Z,89.24
2022-12-15T16:58:06.955Z,89.54
2022-12-15T17:00:35.204Z,89.47
2022-12-15T17:03:02.467Z,89.96
2022-12-15T17:05:31.906Z,89.97
2022-12-15T17:08:00.758Z,89.91
2022-12-15T17:10:30.138Z,89.88
2022-12-15T17:13:03.081Z,89.71
2022-12-15T17:15:29.457Z,90.37
2022-12-15T17:17:56.296Z,90.13
2022-12-15T17:20:30.097Z,90.29
2022-12-15T17:23:07.627Z,90.68
2022-12-15T17:28:30.994Z,90.62
2022-12-15T17:30:57.633Z,90.30
2022-12-15T17:33:25.699Z,90.52
2022-12-15T17:35:55.035Z,90.91
2022-12-15T17:38:22.672Z,90.99
2022-12-15T17:40:51.094Z,90.74
2022-12-15T17:43:23.799Z,90.99
2022-12-15T17:45:50.854Z,90.80
2022-12-15T17:48:17.874Z,90.71
2022-12-15T17:50:49.891Z,91.22
2022-12-15T17:53:18.580Z,91.13
2022-12-15T17:55:45.427Z,91.20
2022-12-15T17:58:20.947Z,90.85
2022-12-15T18:00:51.654Z,91.02
2022-12-15T18:03:19.558Z,91.43
2022-12-15T18:05:48.049Z,91.31
2022-12-15T18:08:22.585Z,91.42
2022-12-15T18:10:51.694Z,91.68
2022-12-15T18:13:26.844Z,91.11
2022-12-15T18:15:55.518Z,91.81
2022-12-15T18:18:24.833Z,91.63
2022-12-15T18:20:56.742Z,91.34
2022-12-15T18:23:25.076Z,91.92
2022-12-15T18:25:52.429Z,91.63
2022-12-15T18:28:21.972Z,91.72
2022-12-15T18:30:50.144Z,92.03
2022-12-15T18:33:16.844Z,91.43
2022-12-15T18:35:45.815Z,92.10
2022-12-15T18:38:23.868Z,92.15
2022-12-15T18:40:57.095Z,92.07
2022-12-15T18:43:34.698Z,92.00
2022-12-15T18:46:01.537Z,91.69
2022-12-15T18:48:35.034Z,91.57
2022-12-15T18:51:03.212Z,92.10
2022-12-15T18:53:34.042Z,91.70
2022-12-15T18:56:03.266Z,91.30
2022-12-15T18:58:32.388Z,91.47
2022-12-15T19:01:00.971Z,91.60
2022-12-15T19:03:28.346Z,91.87
2022-12-15T19:06:25.280Z,91.79
2022-12-15T19:08:52.478Z,91.83
2022-12-15T19:11:32.664Z,91.38
2022-12-15T19:14:01.026Z,91.40
2022-12-15T19:16:48.116Z,91.68
2022-12-15T19:19:34.876Z,91.32
2022-12-15T19:22:20.260Z,91.86
2022-12-15T19:24:55.558Z,91.34
2022-12-15T19:27:26.583Z,91.80
2022-12-15T19:29:54.533Z,91.56
2022-12-15T19:32:21.325Z,91.99
2022-12-15T19:34:47.752Z,91.37
2022-12-15T19:37:22.874Z,91.79
2022-12-15T19:39:49.610Z,91.22
2022-12-15T19:42:23.706Z,91.77
2022-12-15T19:44:50.107Z,91.64
2022-12-15T19:47:16.514Z,91.82
2022-12-15T19:49:43.585Z,91.99
2022-12-15T19:52:14.615Z,91.40
2022-12-15T19:54:42.389Z,91.28
2022-12-15T19:57:13.521Z,91.26
2022-12-15T19:59:39.994Z,92.05
2022-12-15T20:02:07.094Z,91.69
2022-12-15T20:04:34.055Z,91.90
2022-12-15T20:07:03.831Z,92.04
2022-12-15T20:09:30.287Z,91.71
2022-12-15T20:11:57.217Z,91.91
2022-12-15T20:14:24.846Z,91.63
2022-12-15T20:16:51.380Z,91.58
2022-12-15T20:19:17.883Z,91.59
2022-12-15T20:21:44.483Z,91.73
2022-12-15T20:24:17.464Z,91.92
2022-12-15T20:26:45.242Z,92.01
2022-12-15T20:29:24.661Z,91.98
2022-12-15T20:31:52.404Z,91.48
2022-12-15T20:34:18.945Z,91.80
2022-12-15T20:36:47.324Z,91.61
2022-12-15T20:39:33.968Z,91.59
2022-12-15T20:42:00.414Z,91.26
2022-12-15T20:44:26.976Z,91.63
2022-12-15T20:46:53.538Z,91.49
2022-12-15T20:49:21.625Z,91.23
2022-12-15T20:51:48.653Z,91.15
2022-12-15T20:54:17.482Z,91.42
2022-12-15T20:56:45.094Z,91.39
2022-12-15T20:59:11.514Z,91.57
2022-12-15T21:01:41.933Z,91.25
2022-12-15T21:04:29.279Z,91.07
2022-12-15T21:06:56.744Z,91.18
2022-12-15T21:09:24.036Z,91.23
2022-12-15T21:11:51.870Z,91.07
2022-12-15T21:14:22.293Z,91.22
2022-12-15T21:16:49.209Z,91.02
2022-12-15T21:19:20.963Z,91.13
2022-12-15T21:21:51.771Z,90.47
2022-12-15T21:24:24.550Z,90.96
2022-12-15T21:26:51.989Z,91.00
2022-12-15T21:29:21.416Z,91.13
2022-12-15T21:31:48.387Z,90.89
2022-12-15T21:34:15.257Z,91.11
2022-12-15T21:36:44.212Z,91.08
2022-12-15T21:39:18.515Z,90.36
2022-12-15T21:41:44.994Z,91.24
2022-12-15T21:44:13.750Z,90.88
2022-12-15T21:46:40.831Z,90.87
2022-12-15T21:49:20.401Z,90.81
2022-12-15T21:51:56.387Z,91.14
2022-12-15T21:54:31.327Z,90.72
2022-12-15T21:56:58.978Z,90.93
2022-12-15T21:59:28.935Z,91.10
2022-12-15T22:01:55.974Z,90.87
2022-12-15T22:04:31.349Z,90.73
2022-12-15T22:06:57.748Z,90.33
2022-12-15T22:09:24.622Z,90.50
2022-12-15T22:11:53.745Z,90.48
2022-12-15T22:14:33.589Z,90.38
2022-12-15T22:17:01.882Z,90.23
2022-12-15T22:19:28.683Z,90.22
2022-12-15T22:21:55.259Z,90.36
2022-12-15T22:24:22.036Z,90.21
2022-12-15T22:26:48.667Z,90.27
2022-12-15T22:29:18.783Z,90.56
2022-12-15T22:31:45.200Z,90.07
2022-12-15T22:34:20.730Z,90.16
2022-12-15T22:36:48.134Z,90.10
2022-12-15T22:39:15.095Z,90.09
2022-12-15T22:41:44.765Z,89.98
2022-12-15T22:44:19.307Z,90.53
2022-12-15T22:46:46.904Z,90.25
2022-12-15T22:49:17.483Z,90.23
2022-12-15T22:51:44.764Z,90.13
2022-12-15T22:54:17.928Z,90.03
2022-12-15T22:56:45.324Z,89.87
2022-12-15T22:59:19.500Z,89.81
2022-12-15T23:01:45.969Z,89.95
2022-12-15T23:04:12.800Z,90.09
2022-12-15T23:06:40.418Z,89.77
2022-12-15T23:09:06.969Z,89.70
2022-12-15T23:11:39.704Z,89.88
2022-12-15T23:14:14.458Z,90.01
2022-12-15T23:16:42.087Z,89.34
2022-12-15T23:19:09.526Z,89.55
2022-12-15T23:21:36.560Z,89.83
2022-12-15T23:24:03.086Z,89.33
2022-12-15T23:26:29.465Z,89.67
2022-12-15T23:28:56.020Z,89.44
2022-12-15T23:31:22.690Z,89.77
2022-12-15T23:33:50.025Z,89.70
2022-12-15T23:36:18.694Z,89.40
2022-12-15T23:38:45.178Z,89.61
2022-12-15T23:41:16.030Z,89.56
2022-12-15T23:43:42.475Z,89.28
2022-12-15T23:46:09.572Z,89.46
2022-12-15T23:48:38.357Z,89.72
2022-12-15T23:51:05.920Z,89.38
2022-12-15T23:53:33.200Z,89.41
2022-12-15T23:56:14.685Z,89.12
2022-12-15T23:58:42.597Z,89.50
